sensor_id;sensor_type;location;lat;lon;timestamp;temperature;humidity
13344;DHT22;6741;48.964;9.406;2023-06-14T00:02:06;13.50;1.00
13344;DHT22;6741;48.964;9.406;2023-06-14T00:04:34;13.60;1.00
13344;DHT22;6741;48.964;9.406;2023-06-14T00:07:03;13.60;1.00
13344;DHT22;6741;48.964;9.406;2023-06-14T00:09:33;13.60;1.00
13344;DHT22;6741;48.964;9.406;2023-06-14T00:12:00;13.60;1.00
13344;DHT22;6741;48.964;9.406;2023-06-14T00:14:27;13.60;1.00
13344;DHT22;6741;48.964;9.406;2023-06-14T00:16:54;13.70;1.00
13344;DHT22;6741;48.964;9.406;2023-06-14T00:19:24;13.70;1.00
13344;DHT22;6741;48.964;9.406;2023-06-14T00:21:50;13.80;1.00
13344;DHT22;6741;48.964;9.406;2023-06-14T00:24:19;13.90;1.00
13344;DHT22;6741;48.964;9.406;2023-06-14T00:26:47;13.90;1.00
13344;DHT22;6741;48.964;9.406;2023-06-14T00:29:14;13.90;99.90
13344;DHT22;6741;48.964;9.406;2023-06-14T00:31:41;14.00;1.00
13344;DHT22;6741;48.964;9.406;2023-06-14T00:34:08;14.00;99.90
13344;DHT22;6741;48.964;9.406;2023-06-14T00:36:35;14.10;99.90
13344;DHT22;6741;48.964;9.406;2023-06-14T00:39:02;14.00;1.00
13344;DHT22;6741;48.964;9.406;2023-06-14T00:41:30;14.00;99.90
13344;DHT22;6741;48.964;9.406;2023-06-14T00:43:57;13.90;93.60
13344;DHT22;6741;48.964;9.406;2023-06-14T00:46:25;13.90;1.00
13344;DHT22;6741;48.964;9.406;2023-06-14T00:48:52;13.90;1.00
13344;DHT22;6741;48.964;9.406;2023-06-14T00:51:20;13.90;49.80
13344;DHT22;6741;48.964;9.406;2023-06-14T00:53:47;13.80;99.90
13344;DHT22;6741;48.964;9.406;2023-06-14T00:56:14;13.80;52.30
13344;DHT22;6741;48.964;9.406;2023-06-14T00:58:43;13.80;99.90
13344;DHT22;6741;48.964;9.406;2023-06-14T01:01:10;13.70;1.00
13344;DHT22;6741;48.964;9.406;2023-06-14T01:03:37;13.80;99.90
13344;DHT22;6741;48.964;9.406;2023-06-14T01:06:14;13.80;36.10
13344;DHT22;6741;48.964;9.406;2023-06-14T01:08:49;13.80;1.00
13344;DHT22;6741;48.964;9.406;2023-06-14T01:11:22;13.70;13.70
13344;DHT22;6741;48.964;9.406;2023-06-14T01:13:53;13.70;1.00
13344;DHT22;6741;48.964;9.406;2023-06-14T01:16:21;13.60;99.90
13344;DHT22;6741;48.964;9.406;2023-06-14T01:18:48;13.40;1.00
13344;DHT22;6741;48.964;9.406;2023-06-14T01:21:23;13.30;1.00
13344;DHT22;6741;48.964;9.406;2023-06-14T01:23:52;13.20;1.00
13344;DHT22;6741;48.964;9.406;2023-06-14T01:26:20;13.20;18.50
13344;DHT22;6741;48.964;9.406;2023-06-14T01:28:48;13.10;1.00
13344;DHT22;6741;48.964;9.406;2023-06-14T01:31:17;13.10;99.90
13344;DHT22;6741;48.964;9.406;2023-06-14T01:33:45;13.10;1.00
13344;DHT22;6741;48.964;9.406;2023-06-14T01:36:12;13.00;99.90
13344;DHT22;6741;48.964;9.406;2023-06-14T01:38:40;13.00;1.00
13344;DHT22;6741;48.964;9.406;2023-06-14T01:41:10;12.90;30.90
13344;DHT22;6741;48.964;9.406;2023-06-14T01:43:38;12.90;1.00
13344;DHT22;6741;48.964;9.406;2023-06-14T01:46:06;12.90;99.90
13344;DHT22;6741;48.964;9.406;2023-06-14T01:48:35;12.80;1.00
13344;DHT22;6741;48.964;9.406;2023-06-14T01:51:02;12.70;99.90
13344;DHT22;6741;48.964;9.406;2023-06-14T01:53:28;12.70;1.00
13344;DHT22;6741;48.964;9.406;2023-06-14T01:55:55;12.60;99.90
13344;DHT22;6741;48.964;9.406;2023-06-14T01:58:24;12.70;1.00
13344;DHT22;6741;48.964;9.406;2023-06-14T02:00:52;12.70;1.00
13344;DHT22;6741;48.964;9.406;2023-06-14T02:03:20;12.60;99.90
13344;DHT22;6741;48.964;9.406;2023-06-14T02:05:48;12.60;1.00
13344;DHT22;6741;48.964;9.406;2023-06-14T02:08:15;12.60;99.90
13344;DHT22;6741;48.964;9.406;2023-06-14T02:10:42;12.60;1.00
13344;DHT22;6741;48.964;9.406;2023-06-14T02:13:09;12.50;99.90
13344;DHT22;6741;48.964;9.406;2023-06-14T02:15:38;12.50;1.00
13344;DHT22;6741;48.964;9.406;2023-06-14T02:18:05;12.50;1.00
13344;DHT22;6741;48.964;9.406;2023-06-14T02:20:32;12.40;1.00
13344;DHT22;6741;48.964;9.406;2023-06-14T02:22:59;12.30;1.00
13344;DHT22;6741;48.964;9.406;2023-06-14T02:25:26;12.30;1.00
13344;DHT22;6741;48.964;9.406;2023-06-14T02:27:54;12.20;1.00
13344;DHT22;6741;48.964;9.406;2023-06-14T02:30:21;12.20;99.90
13344;DHT22;6741;48.964;9.406;2023-06-14T02:32:50;12.10;99.90
13344;DHT22;6741;48.964;9.406;2023-06-14T02:35:19;12.10;1.00
13344;DHT22;6741;48.964;9.406;2023-06-14T02:37:50;12.00;99.90
13344;DHT22;6741;48.964;9.406;2023-06-14T02:40:18;12.00;99.90
13344;DHT22;6741;48.964;9.406;2023-06-14T02:42:45;11.90;1.00
13344;DHT22;6741;48.964;9.406;2023-06-14T02:45:12;11.90;1.00
13344;DHT22;6741;48.964;9.406;2023-06-14T02:47:39;11.80;23.60
13344;DHT22;6741;48.964;9.406;2023-06-14T02:50:08;11.80;1.00
13344;DHT22;6741;48.964;9.406;2023-06-14T02:52:35;11.80;49.50
13344;DHT22;6741;48.964;9.406;2023-06-14T02:55:02;11.80;1.00
13344;DHT22;6741;48.964;9.406;2023-06-14T02:57:29;11.70;99.90
13344;DHT22;6741;48.964;9.406;2023-06-14T02:59:56;11.70;99.90
13344;DHT22;6741;48.964;9.406;2023-06-14T03:02:23;11.70;99.90
13344;DHT22;6741;48.964;9.406;2023-06-14T03:04:50;11.80;1.00
13344;DHT22;6741;48.964;9.406;2023-06-14T03:07:18;11.90;99.90
13344;DHT22;6741;48.964;9.406;2023-06-14T03:09:46;12.00;1.00
13344;DHT22;6741;48.964;9.406;2023-06-14T03:12:14;12.00;99.90
13344;DHT22;6741;48.964;9.406;2023-06-14T03:14:41;12.10;1.00
13344;DHT22;6741;48.964;9.406;2023-06-14T03:17:12;12.10;99.90
13344;DHT22;6741;48.964;9.406;2023-06-14T03:19:39;12.10;1.00
13344;DHT22;6741;48.964;9.406;2023-06-14T03:22:06;12.10;99.90
13344;DHT22;6741;48.964;9.406;2023-06-14T03:24:35;12.10;99.90
13344;DHT22;6741;48.964;9.406;2023-06-14T03:27:03;12.10;1.00
13344;DHT22;6741;48.964;9.406;2023-06-14T03:29:30;12.00;1.00
13344;DHT22;6741;48.964;9.406;2023-06-14T03:31:58;11.80;99.90
13344;DHT22;6741;48.964;9.406;2023-06-14T03:34:25;11.70;1.00
13344;DHT22;6741;48.964;9.406;2023-06-14T03:36:52;11.70;99.90
13344;DHT22;6741;48.964;9.406;2023-06-14T03:39:19;11.70;99.90
13344;DHT22;6741;48.964;9.406;2023-06-14T03:41:48;11.70;99.90
13344;DHT22;6741;48.964;9.406;2023-06-14T03:44:16;11.70;99.90
13344;DHT22;6741;48.964;9.406;2023-06-14T03:46:43;11.70;99.90
13344;DHT22;6741;48.964;9.406;2023-06-14T03:49:11;11.70;1.00
13344;DHT22;6741;48.964;9.406;2023-06-14T03:51:38;11.60;1.00
13344;DHT22;6741;48.964;9.406;2023-06-14T03:54:05;11.60;1.00
13344;DHT22;6741;48.964;9.406;2023-06-14T03:56:32;11.60;1.00
13344;DHT22;6741;48.964;9.406;2023-06-14T03:59:00;11.50;1.00
13344;DHT22;6741;48.964;9.406;2023-06-14T04:01:27;11.50;1.00
13344;DHT22;6741;48.964;9.406;2023-06-14T04:03:56;11.50;1.00
13344;DHT22;6741;48.964;9.406;2023-06-14T04:06:23;11.40;1.00
13344;DHT22;6741;48.964;9.406;2023-06-14T04:08:58;11.40;1.00
13344;DHT22;6741;48.964;9.406;2023-06-14T04:11:29;11.40;1.00
13344;DHT22;6741;48.964;9.406;2023-06-14T04:13:56;11.40;1.00
13344;DHT22;6741;48.964;9.406;2023-06-14T04:16:24;11.50;1.00
13344;DHT22;6741;48.964;9.406;2023-06-14T04:18:51;11.50;1.00
13344;DHT22;6741;48.964;9.406;2023-06-14T04:21:18;11.50;1.00
13344;DHT22;6741;48.964;9.406;2023-06-14T04:23:46;11.60;1.00
13344;DHT22;6741;48.964;9.406;2023-06-14T04:26:13;11.60;1.00
13344;DHT22;6741;48.964;9.406;2023-06-14T04:28:40;11.70;1.00
13344;DHT22;6741;48.964;9.406;2023-06-14T04:31:07;11.80;1.00
13344;DHT22;6741;48.964;9.406;2023-06-14T04:33:36;11.90;1.00
13344;DHT22;6741;48.964;9.406;2023-06-14T04:36:09;12.10;1.00
13344;DHT22;6741;48.964;9.406;2023-06-14T04:38:37;12.20;99.90
13344;DHT22;6741;48.964;9.406;2023-06-14T04:41:04;12.30;99.90
13344;DHT22;6741;48.964;9.406;2023-06-14T04:43:31;12.40;99.90
13344;DHT22;6741;48.964;9.406;2023-06-14T04:46:03;12.40;1.00
13344;DHT22;6741;48.964;9.406;2023-06-14T04:48:31;12.50;99.90
13344;DHT22;6741;48.964;9.406;2023-06-14T04:51:00;12.60;99.90
13344;DHT22;6741;48.964;9.406;2023-06-14T04:53:29;12.70;99.90
13344;DHT22;6741;48.964;9.406;2023-06-14T04:55:56;12.80;99.90
13344;DHT22;6741;48.964;9.406;2023-06-14T04:58:23;12.90;99.90
13344;DHT22;6741;48.964;9.406;2023-06-14T05:00:50;13.00;99.90
13344;DHT22;6741;48.964;9.406;2023-06-14T05:03:17;13.10;1.00
13344;DHT22;6741;48.964;9.406;2023-06-14T05:05:46;13.20;99.90
13344;DHT22;6741;48.964;9.406;2023-06-14T05:08:15;13.30;99.90
13344;DHT22;6741;48.964;9.406;2023-06-14T05:10:42;13.40;99.90
13344;DHT22;6741;48.964;9.406;2023-06-14T05:13:09;13.50;99.90
13344;DHT22;6741;48.964;9.406;2023-06-14T05:15:36;13.60;4.80
13344;DHT22;6741;48.964;9.406;2023-06-14T05:18:03;13.80;1.00
13344;DHT22;6741;48.964;9.406;2023-06-14T05:20:31;13.90;99.90
13344;DHT22;6741;48.964;9.406;2023-06-14T05:22:57;14.00;26.10
13344;DHT22;6741;48.964;9.406;2023-06-14T05:25:26;14.20;99.90
13344;DHT22;6741;48.964;9.406;2023-06-14T05:27:53;14.30;99.90
13344;DHT22;6741;48.964;9.406;2023-06-14T05:30:21;14.40;1.00
13344;DHT22;6741;48.964;9.406;2023-06-14T05:32:47;14.60;1.00
13344;DHT22;6741;48.964;9.406;2023-06-14T05:35:15;14.80;99.90
13344;DHT22;6741;48.964;9.406;2023-06-14T05:37:42;15.00;1.00
13344;DHT22;6741;48.964;9.406;2023-06-14T05:40:10;15.10;99.90
13344;DHT22;6741;48.964;9.406;2023-06-14T05:42:38;15.20;87.60
13344;DHT22;6741;48.964;9.406;2023-06-14T05:45:06;15.30;1.00
13344;DHT22;6741;48.964;9.406;2023-06-14T05:47:33;15.50;1.00
13344;DHT22;6741;48.964;9.406;2023-06-14T05:50:00;15.60;79.60
13344;DHT22;6741;48.964;9.406;2023-06-14T05:52:27;15.80;99.90
13344;DHT22;6741;48.964;9.406;2023-06-14T05:54:57;15.80;99.90
13344;DHT22;6741;48.964;9.406;2023-06-14T05:57:24;16.00;98.20
13344;DHT22;6741;48.964;9.406;2023-06-14T05:59:52;16.00;1.00
13344;DHT22;6741;48.964;9.406;2023-06-14T06:02:19;16.10;11.40
13344;DHT22;6741;48.964;9.406;2023-06-14T06:04:46;16.20;99.90
13344;DHT22;6741;48.964;9.406;2023-06-14T06:07:13;16.30;99.90
13344;DHT22;6741;48.964;9.406;2023-06-14T06:09:40;16.40;99.90
13344;DHT22;6741;48.964;9.406;2023-06-14T06:12:07;16.50;99.90
13344;DHT22;6741;48.964;9.406;2023-06-14T06:14:34;16.60;1.00
13344;DHT22;6741;48.964;9.406;2023-06-14T06:17:02;16.70;23.00
13344;DHT22;6741;48.964;9.406;2023-06-14T06:19:29;16.80;38.10
13344;DHT22;6741;48.964;9.406;2023-06-14T06:21:56;16.80;99.90
13344;DHT22;6741;48.964;9.406;2023-06-14T06:24:23;17.00;99.90
13344;DHT22;6741;48.964;9.406;2023-06-14T06:26:50;17.20;22.00
13344;DHT22;6741;48.964;9.406;2023-06-14T06:29:17;17.30;99.90
13344;DHT22;6741;48.964;9.406;2023-06-14T06:31:44;17.30;1.00
13344;DHT22;6741;48.964;9.406;2023-06-14T06:34:12;17.50;99.90
13344;DHT22;6741;48.964;9.406;2023-06-14T06:36:39;17.60;1.00
13344;DHT22;6741;48.964;9.406;2023-06-14T06:39:07;17.70;1.00
13344;DHT22;6741;48.964;9.406;2023-06-14T06:41:36;17.80;1.00
13344;DHT22;6741;48.964;9.406;2023-06-14T06:44:03;17.80;1.00
13344;DHT22;6741;48.964;9.406;2023-06-14T06:46:30;17.90;1.00
13344;DHT22;6741;48.964;9.406;2023-06-14T06:48:57;18.00;1.00
13344;DHT22;6741;48.964;9.406;2023-06-14T06:51:25;18.10;1.00
13344;DHT22;6741;48.964;9.406;2023-06-14T06:53:53;18.30;1.00
13344;DHT22;6741;48.964;9.406;2023-06-14T06:56:20;18.40;1.00
13344;DHT22;6741;48.964;9.406;2023-06-14T06:58:48;18.50;1.00
13344;DHT22;6741;48.964;9.406;2023-06-14T07:01:15;18.70;99.90
13344;DHT22;6741;48.964;9.406;2023-06-14T07:03:43;18.70;99.90
13344;DHT22;6741;48.964;9.406;2023-06-14T07:06:09;18.80;1.00
13344;DHT22;6741;48.964;9.406;2023-06-14T07:08:38;18.90;99.90
13344;DHT22;6741;48.964;9.406;2023-06-14T07:11:05;18.90;99.90
13344;DHT22;6741;48.964;9.406;2023-06-14T07:13:32;19.00;99.90
13344;DHT22;6741;48.964;9.406;2023-06-14T07:16:00;19.10;99.90
13344;DHT22;6741;48.964;9.406;2023-06-14T07:18:27;19.20;99.90
13344;DHT22;6741;48.964;9.406;2023-06-14T07:20:54;19.20;99.90
13344;DHT22;6741;48.964;9.406;2023-06-14T07:23:21;19.30;99.90
13344;DHT22;6741;48.964;9.406;2023-06-14T07:25:49;19.30;99.90
13344;DHT22;6741;48.964;9.406;2023-06-14T07:28:16;19.30;99.90
13344;DHT22;6741;48.964;9.406;2023-06-14T07:30:44;19.50;99.90
13344;DHT22;6741;48.964;9.406;2023-06-14T07:33:10;19.70;99.90
13344;DHT22;6741;48.964;9.406;2023-06-14T07:35:38;19.70;99.90
13344;DHT22;6741;48.964;9.406;2023-06-14T07:38:04;19.80;99.90
13344;DHT22;6741;48.964;9.406;2023-06-14T07:40:31;19.70;3.80
13344;DHT22;6741;48.964;9.406;2023-06-14T07:42:59;19.90;99.90
13344;DHT22;6741;48.964;9.406;2023-06-14T07:45:27;20.10;99.90
13344;DHT22;6741;48.964;9.406;2023-06-14T07:47:54;20.20;99.90
13344;DHT22;6741;48.964;9.406;2023-06-14T07:50:22;20.40;99.90
13344;DHT22;6741;48.964;9.406;2023-06-14T07:52:49;20.50;99.90
13344;DHT22;6741;48.964;9.406;2023-06-14T07:55:16;20.70;35.70
13344;DHT22;6741;48.964;9.406;2023-06-14T07:57:43;20.80;1.00
13344;DHT22;6741;48.964;9.406;2023-06-14T08:00:13;21.00;24.10
13344;DHT22;6741;48.964;9.406;2023-06-14T08:02:41;21.10;92.00
13344;DHT22;6741;48.964;9.406;2023-06-14T08:05:09;21.30;8.20
13344;DHT22;6741;48.964;9.406;2023-06-14T08:07:37;21.50;12.10
13344;DHT22;6741;48.964;9.406;2023-06-14T08:10:04;21.50;97.50
13344;DHT22;6741;48.964;9.406;2023-06-14T08:12:32;21.50;43.70
13344;DHT22;6741;48.964;9.406;2023-06-14T08:14:59;21.60;99.90
13344;DHT22;6741;48.964;9.406;2023-06-14T08:17:27;21.80;53.70
13344;DHT22;6741;48.964;9.406;2023-06-14T08:19:54;21.70;28.50
13344;DHT22;6741;48.964;9.406;2023-06-14T08:22:23;21.80;20.90
13344;DHT22;6741;48.964;9.406;2023-06-14T08:24:51;22.20;19.30
13344;DHT22;6741;48.964;9.406;2023-06-14T08:27:19;22.20;99.90
13344;DHT22;6741;48.964;9.406;2023-06-14T08:29:46;22.30;1.00
13344;DHT22;6741;48.964;9.406;2023-06-14T08:32:13;22.30;1.00
13344;DHT22;6741;48.964;9.406;2023-06-14T08:34:41;22.40;87.10
13344;DHT22;6741;48.964;9.406;2023-06-14T08:37:08;22.60;31.10
13344;DHT22;6741;48.964;9.406;2023-06-14T08:39:35;22.50;1.00
13344;DHT22;6741;48.964;9.406;2023-06-14T08:42:02;22.60;1.00
13344;DHT22;6741;48.964;9.406;2023-06-14T08:44:30;22.60;1.00
13344;DHT22;6741;48.964;9.406;2023-06-14T08:46:57;22.80;1.00
13344;DHT22;6741;48.964;9.406;2023-06-14T08:49:26;22.80;1.00
13344;DHT22;6741;48.964;9.406;2023-06-14T08:51:58;23.00;1.00
13344;DHT22;6741;48.964;9.406;2023-06-14T08:54:27;23.10;1.00
13344;DHT22;6741;48.964;9.406;2023-06-14T08:56:56;22.80;1.00
13344;DHT22;6741;48.964;9.406;2023-06-14T08:59:24;23.10;1.00
13344;DHT22;6741;48.964;9.406;2023-06-14T09:01:52;23.40;1.00
13344;DHT22;6741;48.964;9.406;2023-06-14T09:04:20;23.60;1.00
13344;DHT22;6741;48.964;9.406;2023-06-14T09:06:47;23.60;1.00
13344;DHT22;6741;48.964;9.406;2023-06-14T09:09:19;23.50;1.00
13344;DHT22;6741;48.964;9.406;2023-06-14T09:11:49;23.70;1.00
13344;DHT22;6741;48.964;9.406;2023-06-14T09:14:17;23.70;1.00
13344;DHT22;6741;48.964;9.406;2023-06-14T09:16:44;23.90;1.00
13344;DHT22;6741;48.964;9.406;2023-06-14T09:19:14;23.90;99.90
13344;DHT22;6741;48.964;9.406;2023-06-14T09:21:47;24.00;99.90
13344;DHT22;6741;48.964;9.406;2023-06-14T09:24:14;24.10;99.90
13344;DHT22;6741;48.964;9.406;2023-06-14T09:26:43;24.40;99.90
13344;DHT22;6741;48.964;9.406;2023-06-14T09:29:10;24.50;34.20
13344;DHT22;6741;48.964;9.406;2023-06-14T09:31:37;24.70;99.90
13344;DHT22;6741;48.964;9.406;2023-06-14T09:34:05;24.80;1.00
13344;DHT22;6741;48.964;9.406;2023-06-14T09:36:32;24.80;1.00
13344;DHT22;6741;48.964;9.406;2023-06-14T09:39:02;24.70;1.00
13344;DHT22;6741;48.964;9.406;2023-06-14T09:41:31;24.50;1.00
13344;DHT22;6741;48.964;9.406;2023-06-14T09:44:01;24.30;1.00
13344;DHT22;6741;48.964;9.406;2023-06-14T09:46:29;24.60;1.00
13344;DHT22;6741;48.964;9.406;2023-06-14T09:48:56;25.10;1.00
13344;DHT22;6741;48.964;9.406;2023-06-14T09:51:24;25.30;1.00
13344;DHT22;6741;48.964;9.406;2023-06-14T09:53:52;25.40;1.00
13344;DHT22;6741;48.964;9.406;2023-06-14T09:56:23;25.60;1.00
13344;DHT22;6741;48.964;9.406;2023-06-14T09:58:55;25.10;38.50
13344;DHT22;6741;48.964;9.406;2023-06-14T10:01:24;24.60;46.40
13344;DHT22;6741;48.964;9.406;2023-06-14T10:03:55;25.00;1.00
13344;DHT22;6741;48.964;9.406;2023-06-14T10:06:26;25.80;4.30
13344;DHT22;6741;48.964;9.406;2023-06-14T10:08:57;26.50;12.40
13344;DHT22;6741;48.964;9.406;2023-06-14T10:11:25;26.80;1.00
13344;DHT22;6741;48.964;9.406;2023-06-14T10:13:53;26.90;99.90
13344;DHT22;6741;48.964;9.406;2023-06-14T10:16:27;26.80;99.90
13344;DHT22;6741;48.964;9.406;2023-06-14T10:19:01;26.90;99.90
13344;DHT22;6741;48.964;9.406;2023-06-14T10:21:45;27.20;99.90
13344;DHT22;6741;48.964;9.406;2023-06-14T10:24:16;27.00;99.90
13344;DHT22;6741;48.964;9.406;2023-06-14T10:26:51;27.10;99.90
13344;DHT22;6741;48.964;9.406;2023-06-14T10:29:18;27.10;99.90
13344;DHT22;6741;48.964;9.406;2023-06-14T10:31:48;27.50;99.90
13344;DHT22;6741;48.964;9.406;2023-06-14T10:34:23;27.50;99.90
13344;DHT22;6741;48.964;9.406;2023-06-14T10:37:01;27.50;99.90
13344;DHT22;6741;48.964;9.406;2023-06-14T10:39:29;28.00;1.00
13344;DHT22;6741;48.964;9.406;2023-06-14T10:41:57;27.70;99.90
13344;DHT22;6741;48.964;9.406;2023-06-14T10:44:41;27.00;99.90
13344;DHT22;6741;48.964;9.406;2023-06-14T10:49:53;26.80;99.90
13344;DHT22;6741;48.964;9.406;2023-06-14T10:52:25;27.50;99.90
13344;DHT22;6741;48.964;9.406;2023-06-14T10:55:06;28.30;99.90
13344;DHT22;6741;48.964;9.406;2023-06-14T10:57:37;28.70;99.90
13344;DHT22;6741;48.964;9.406;2023-06-14T11:00:05;28.90;99.90
13344;DHT22;6741;48.964;9.406;2023-06-14T11:05:49;28.20;99.90
13344;DHT22;6741;48.964;9.406;2023-06-14T11:08:46;27.20;99.90
13344;DHT22;6741;48.964;9.406;2023-06-14T11:11:18;25.90;99.90
13344;DHT22;6741;48.964;9.406;2023-06-14T11:13:47;25.70;99.90
13344;DHT22;6741;48.964;9.406;2023-06-14T11:16:15;25.60;99.90
13344;DHT22;6741;48.964;9.406;2023-06-14T11:18:44;26.00;99.90
13344;DHT22;6741;48.964;9.406;2023-06-14T11:21:15;27.10;99.90
13344;DHT22;6741;48.964;9.406;2023-06-14T11:23:42;28.10;99.90
13344;DHT22;6741;48.964;9.406;2023-06-14T11:26:15;28.80;99.90
13344;DHT22;6741;48.964;9.406;2023-06-14T11:28:43;29.70;1.00
13344;DHT22;6741;48.964;9.406;2023-06-14T11:31:10;30.40;99.90
13344;DHT22;6741;48.964;9.406;2023-06-14T11:33:37;30.60;99.90
13344;DHT22;6741;48.964;9.406;2023-06-14T11:36:06;30.90;99.90
13344;DHT22;6741;48.964;9.406;2023-06-14T11:38:35;30.30;1.00
13344;DHT22;6741;48.964;9.406;2023-06-14T11:41:03;29.30;1.00
13344;DHT22;6741;48.964;9.406;2023-06-14T11:43:30;28.70;1.00
13344;DHT22;6741;48.964;9.406;2023-06-14T11:45:59;27.90;1.00
13344;DHT22;6741;48.964;9.406;2023-06-14T11:48:36;27.30;99.90
13344;DHT22;6741;48.964;9.406;2023-06-14T11:51:03;26.50;1.00
13344;DHT22;6741;48.964;9.406;2023-06-14T11:53:31;26.40;99.90
13344;DHT22;6741;48.964;9.406;2023-06-14T11:55:59;26.40;1.00
13344;DHT22;6741;48.964;9.406;2023-06-14T11:58:26;27.60;1.00
13344;DHT22;6741;48.964;9.406;2023-06-14T12:00:53;29.00;99.90
13344;DHT22;6741;48.964;9.406;2023-06-14T12:03:23;29.60;1.00
13344;DHT22;6741;48.964;9.406;2023-06-14T12:05:51;30.10;99.90
13344;DHT22;6741;48.964;9.406;2023-06-14T12:08:34;30.30;1.00
13344;DHT22;6741;48.964;9.406;2023-06-14T12:11:05;30.50;1.00
13344;DHT22;6741;48.964;9.406;2023-06-14T12:13:34;31.00;1.00
13344;DHT22;6741;48.964;9.406;2023-06-14T12:16:02;31.40;1.00
13344;DHT22;6741;48.964;9.406;2023-06-14T12:18:34;31.50;1.00
13344;DHT22;6741;48.964;9.406;2023-06-14T12:21:03;31.80;1.00
13344;DHT22;6741;48.964;9.406;2023-06-14T12:23:47;32.30;1.00
13344;DHT22;6741;48.964;9.406;2023-06-14T12:26:15;32.20;1.00
13344;DHT22;6741;48.964;9.406;2023-06-14T12:28:44;32.10;1.00
13344;DHT22;6741;48.964;9.406;2023-06-14T12:31:11;32.20;1.00
13344;DHT22;6741;48.964;9.406;2023-06-14T12:33:39;32.10;1.00
13344;DHT22;6741;48.964;9.406;2023-06-14T12:36:08;32.70;72.70
13344;DHT22;6741;48.964;9.406;2023-06-14T12:38:35;33.70;99.90
13344;DHT22;6741;48.964;9.406;2023-06-14T12:41:04;34.00;99.90
13344;DHT22;6741;48.964;9.406;2023-06-14T12:43:31;33.70;99.90
13344;DHT22;6741;48.964;9.406;2023-06-14T12:45:58;34.10;99.90
13344;DHT22;6741;48.964;9.406;2023-06-14T12:48:25;34.50;99.90
13344;DHT22;6741;48.964;9.406;2023-06-14T12:50:53;33.70;99.90
13344;DHT22;6741;48.964;9.406;2023-06-14T12:53:20;33.90;99.90
13344;DHT22;6741;48.964;9.406;2023-06-14T12:55:47;34.20;99.90
13344;DHT22;6741;48.964;9.406;2023-06-14T12:58:15;34.40;99.90
13344;DHT22;6741;48.964;9.406;2023-06-14T13:00:42;34.00;1.00
13344;DHT22;6741;48.964;9.406;2023-06-14T13:03:11;33.30;99.90
13344;DHT22;6741;48.964;9.406;2023-06-14T13:05:38;32.30;1.00
13344;DHT22;6741;48.964;9.406;2023-06-14T13:08:07;31.00;1.00
13344;DHT22;6741;48.964;9.406;2023-06-14T13:10:35;29.50;1.00
13344;DHT22;6741;48.964;9.406;2023-06-14T13:13:02;28.80;1.00
13344;DHT22;6741;48.964;9.406;2023-06-14T13:15:31;28.30;1.00
13344;DHT22;6741;48.964;9.406;2023-06-14T13:17:58;28.30;99.90
13344;DHT22;6741;48.964;9.406;2023-06-14T13:20:25;29.10;1.00
13344;DHT22;6741;48.964;9.406;2023-06-14T13:22:52;30.80;1.00
13344;DHT22;6741;48.964;9.406;2023-06-14T13:25:19;32.60;28.10
13344;DHT22;6741;48.964;9.406;2023-06-14T13:27:46;33.40;91.80
13344;DHT22;6741;48.964;9.406;2023-06-14T13:30:13;32.40;1.00
13344;DHT22;6741;48.964;9.406;2023-06-14T13:32:41;31.50;99.90
13344;DHT22;6741;48.964;9.406;2023-06-14T13:35:08;31.40;1.00
13344;DHT22;6741;48.964;9.406;2023-06-14T13:37:36;31.70;1.00
13344;DHT22;6741;48.964;9.406;2023-06-14T13:40:03;32.30;1.00
13344;DHT22;6741;48.964;9.406;2023-06-14T13:42:31;31.20;1.00
13344;DHT22;6741;48.964;9.406;2023-06-14T13:44:58;29.60;1.00
13344;DHT22;6741;48.964;9.406;2023-06-14T13:47:25;28.70;99.90
13344;DHT22;6741;48.964;9.406;2023-06-14T13:49:53;28.50;99.90
13344;DHT22;6741;48.964;9.406;2023-06-14T13:52:21;30.20;1.00
13344;DHT22;6741;48.964;9.406;2023-06-14T13:54:47;31.20;99.90
13344;DHT22;6741;48.964;9.406;2023-06-14T13:57:15;30.70;99.90
13344;DHT22;6741;48.964;9.406;2023-06-14T13:59:42;29.40;1.00
13344;DHT22;6741;48.964;9.406;2023-06-14T14:02:11;28.40;99.90
13344;DHT22;6741;48.964;9.406;2023-06-14T14:04:39;27.80;1.00
13344;DHT22;6741;48.964;9.406;2023-06-14T14:07:07;27.40;1.00
13344;DHT22;6741;48.964;9.406;2023-06-14T14:09:35;27.10;1.00
13344;DHT22;6741;48.964;9.406;2023-06-14T14:12:03;26.80;1.00
13344;DHT22;6741;48.964;9.406;2023-06-14T14:14:31;26.70;99.90
13344;DHT22;6741;48.964;9.406;2023-06-14T14:16:58;26.60;1.00
13344;DHT22;6741;48.964;9.406;2023-06-14T14:19:25;26.80;99.90
13344;DHT22;6741;48.964;9.406;2023-06-14T14:21:52;27.10;99.90
13344;DHT22;6741;48.964;9.406;2023-06-14T14:24:21;28.90;99.90
13344;DHT22;6741;48.964;9.406;2023-06-14T14:26:48;30.50;1.00
13344;DHT22;6741;48.964;9.406;2023-06-14T14:29:15;31.90;99.90
13344;DHT22;6741;48.964;9.406;2023-06-14T14:31:42;32.90;1.00
13344;DHT22;6741;48.964;9.406;2023-06-14T14:34:09;33.20;1.00
13344;DHT22;6741;48.964;9.406;2023-06-14T14:36:36;33.20;1.00
13344;DHT22;6741;48.964;9.406;2023-06-14T14:39:06;32.40;1.00
13344;DHT22;6741;48.964;9.406;2023-06-14T14:41:35;32.20;1.00
13344;DHT22;6741;48.964;9.406;2023-06-14T14:44:03;33.50;1.00
13344;DHT22;6741;48.964;9.406;2023-06-14T14:46:30;33.70;1.00
13344;DHT22;6741;48.964;9.406;2023-06-14T14:48:58;33.90;1.00
13344;DHT22;6741;48.964;9.406;2023-06-14T14:51:25;34.70;1.00
13344;DHT22;6741;48.964;9.406;2023-06-14T14:53:52;34.50;99.90
13344;DHT22;6741;48.964;9.406;2023-06-14T14:56:19;34.50;1.00
13344;DHT22;6741;48.964;9.406;2023-06-14T14:58:47;34.60;87.00
13344;DHT22;6741;48.964;9.406;2023-06-14T15:01:15;34.60;8.00
13344;DHT22;6741;48.964;9.406;2023-06-14T15:03:42;34.10;99.90
13344;DHT22;6741;48.964;9.406;2023-06-14T15:06:09;32.70;99.90
13344;DHT22;6741;48.964;9.406;2023-06-14T15:08:35;31.00;99.90
13344;DHT22;6741;48.964;9.406;2023-06-14T15:11:03;29.50;73.50
13344;DHT22;6741;48.964;9.406;2023-06-14T15:13:30;28.50;1.00
13344;DHT22;6741;48.964;9.406;2023-06-14T15:15:58;27.90;14.00
13344;DHT22;6741;48.964;9.406;2023-06-14T15:18:25;27.20;1.00
13344;DHT22;6741;48.964;9.406;2023-06-14T15:20:52;26.80;1.00
13344;DHT22;6741;48.964;9.406;2023-06-14T15:23:19;26.40;80.90
13344;DHT22;6741;48.964;9.406;2023-06-14T15:25:47;26.20;1.00
13344;DHT22;6741;48.964;9.406;2023-06-14T15:28:14;25.80;1.00
13344;DHT22;6741;48.964;9.406;2023-06-14T15:30:41;25.50;1.00
13344;DHT22;6741;48.964;9.406;2023-06-14T15:33:10;25.50;1.00
13344;DHT22;6741;48.964;9.406;2023-06-14T15:35:36;25.40;1.00
13344;DHT22;6741;48.964;9.406;2023-06-14T15:38:03;25.30;1.00
13344;DHT22;6741;48.964;9.406;2023-06-14T15:40:30;25.10;1.00
13344;DHT22;6741;48.964;9.406;2023-06-14T15:42:57;24.90;1.00
13344;DHT22;6741;48.964;9.406;2023-06-14T15:45:24;24.90;1.00
13344;DHT22;6741;48.964;9.406;2023-06-14T15:47:51;24.90;1.00
13344;DHT22;6741;48.964;9.406;2023-06-14T15:50:20;24.80;1.00
13344;DHT22;6741;48.964;9.406;2023-06-14T15:52:47;25.00;1.00
13344;DHT22;6741;48.964;9.406;2023-06-14T15:55:14;25.30;1.00
13344;DHT22;6741;48.964;9.406;2023-06-14T15:57:41;25.40;99.90
13344;DHT22;6741;48.964;9.406;2023-06-14T16:00:09;26.10;1.00
13344;DHT22;6741;48.964;9.406;2023-06-14T16:02:37;26.80;1.00
13344;DHT22;6741;48.964;9.406;2023-06-14T16:05:05;27.40;1.00
13344;DHT22;6741;48.964;9.406;2023-06-14T16:07:38;27.90;1.00